sensor_id;sensor_type;location;lat;lon;timestamp;temperature;humidity
2407;DHT22;37709;53.480;9.688;2022-09-29T00:01:13;4.30;99.90
2407;DHT22;37709;53.480;9.688;2022-09-29T00:03:42;4.30;99.90
2407;DHT22;37709;53.480;9.688;2022-09-29T00:06:12;4.20;99.90
2407;DHT22;37709;53.480;9.688;2022-09-29T00:08:41;4.30;99.90
2407;DHT22;37709;53.480;9.688;2022-09-29T00:11:11;4.30;99.90
2407;DHT22;37709;53.480;9.688;2022-09-29T00:13:39;4.30;99.90
2407;DHT22;37709;53.480;9.688;2022-09-29T00:16:06;4.30;99.90
2407;DHT22;37709;53.480;9.688;2022-09-29T00:18:34;4.30;99.90
2407;DHT22;37709;53.480;9.688;2022-09-29T00:21:08;4.30;99.90
2407;DHT22;37709;53.480;9.688;2022-09-29T00:23:37;4.40;99.90
2407;DHT22;37709;53.480;9.688;2022-09-29T00:26:11;4.40;99.90
2407;DHT22;37709;53.480;9.688;2022-09-29T00:28:45;4.40;99.90
2407;DHT22;37709;53.480;9.688;2022-09-29T00:31:12;4.30;99.90
2407;DHT22;37709;53.480;9.688;2022-09-29T00:33:40;4.40;99.90
2407;DHT22;37709;53.480;9.688;2022-09-29T00:36:14;4.30;99.90
2407;DHT22;37709;53.480;9.688;2022-09-29T00:38:42;4.20;99.90
2407;DHT22;37709;53.480;9.688;2022-09-29T00:41:13;4.10;99.90
2407;DHT22;37709;53.480;9.688;2022-09-29T00:46:45;3.90;99.90
2407;DHT22;37709;53.480;9.688;2022-09-29T00:51:53;3.90;99.90
2407;DHT22;37709;53.480;9.688;2022-09-29T00:54:24;3.90;99.90
2407;DHT22;37709;53.480;9.688;2022-09-29T00:56:57;3.90;99.90
2407;DHT22;37709;53.480;9.688;2022-09-29T00:59:54;3.90;99.90
2407;DHT22;37709;53.480;9.688;2022-09-29T01:02:25;4.10;99.90
2407;DHT22;37709;53.480;9.688;2022-09-29T01:04:54;4.10;99.90
2407;DHT22;37709;53.480;9.688;2022-09-29T01:07:23;4.20;99.90
2407;DHT22;37709;53.480;9.688;2022-09-29T01:09:53;4.20;99.90
2407;DHT22;37709;53.480;9.688;2022-09-29T01:12:22;4.30;99.90
2407;DHT22;37709;53.480;9.688;2022-09-29T01:14:52;4.30;99.90
2407;DHT22;37709;53.480;9.688;2022-09-29T01:17:20;4.20;99.90
2407;DHT22;37709;53.480;9.688;2022-09-29T01:20:10;4.30;99.90
2407;DHT22;37709;53.480;9.688;2022-09-29T01:23:09;4.20;99.90
2407;DHT22;37709;53.480;9.688;2022-09-29T01:26:05;4.20;99.90
2407;DHT22;37709;53.480;9.688;2022-09-29T01:31:57;3.90;99.90
2407;DHT22;37709;53.480;9.688;2022-09-29T01:37:41;3.90;99.90
2407;DHT22;37709;53.480;9.688;2022-09-29T01:40:15;3.90;99.90
2407;DHT22;37709;53.480;9.688;2022-09-29T01:43:04;3.80;99.90
2407;DHT22;37709;53.480;9.688;2022-09-29T01:45:40;3.80;99.90
2407;DHT22;37709;53.480;9.688;2022-09-29T01:48:28;3.80;99.90
2407;DHT22;37709;53.480;9.688;2022-09-29T01:51:02;3.80;99.90
2407;DHT22;37709;53.480;9.688;2022-09-29T01:53:37;3.80;99.90
2407;DHT22;37709;53.480;9.688;2022-09-29T01:56:13;3.80;99.90
2407;DHT22;37709;53.480;9.688;2022-09-29T02:01:14;3.80;99.90
2407;DHT22;37709;53.480;9.688;2022-09-29T02:03:47;3.80;99.90
2407;DHT22;37709;53.480;9.688;2022-09-29T02:06:26;3.80;99.90
2407;DHT22;37709;53.480;9.688;2022-09-29T02:08:57;3.70;99.90
2407;DHT22;37709;53.480;9.688;2022-09-29T02:11:31;3.70;99.90
2407;DHT22;37709;53.480;9.688;2022-09-29T02:16:39;3.70;99.90
2407;DHT22;37709;53.480;9.688;2022-09-29T02:19:21;3.60;99.90
2407;DHT22;37709;53.480;9.688;2022-09-29T02:21:50;3.60;99.90
2407;DHT22;37709;53.480;9.688;2022-09-29T02:24:21;3.60;99.90
2407;DHT22;37709;53.480;9.688;2022-09-29T02:26:49;3.60;99.90
2407;DHT22;37709;53.480;9.688;2022-09-29T02:29:18;3.60;99.90
2407;DHT22;37709;53.480;9.688;2022-09-29T02:31:47;3.60;99.90
2407;DHT22;37709;53.480;9.688;2022-09-29T02:34:17;3.60;99.90
2407;DHT22;37709;53.480;9.688;2022-09-29T02:45:46;3.80;99.90
2407;DHT22;37709;53.480;9.688;2022-09-29T02:53:56;3.80;99.90
2407;DHT22;37709;53.480;9.688;2022-09-29T02:56:53;3.70;99.90
2407;DHT22;37709;53.480;9.688;2022-09-29T03:01:57;3.70;99.90
2407;DHT22;37709;53.480;9.688;2022-09-29T03:04:26;3.70;99.90
2407;DHT22;37709;53.480;9.688;2022-09-29T03:06:54;3.70;99.90
2407;DHT22;37709;53.480;9.688;2022-09-29T03:09:21;3.70;99.90
2407;DHT22;37709;53.480;9.688;2022-09-29T03:11:49;3.70;99.90
2407;DHT22;37709;53.480;9.688;2022-09-29T03:14:16;3.70;99.90
2407;DHT22;37709;53.480;9.688;2022-09-29T03:16:43;3.70;99.90
2407;DHT22;37709;53.480;9.688;2022-09-29T03:19:11;3.60;99.90
2407;DHT22;37709;53.480;9.688;2022-09-29T03:21:39;3.60;99.90
2407;DHT22;37709;53.480;9.688;2022-09-29T03:24:06;3.60;99.90
2407;DHT22;37709;53.480;9.688;2022-09-29T03:26:34;3.60;99.90
2407;DHT22;37709;53.480;9.688;2022-09-29T03:29:01;3.60;99.90
2407;DHT22;37709;53.480;9.688;2022-09-29T03:31:29;3.60;99.90
2407;DHT22;37709;53.480;9.688;2022-09-29T03:33:57;3.60;99.90
2407;DHT22;37709;53.480;9.688;2022-09-29T03:36:24;3.60;99.90
2407;DHT22;37709;53.480;9.688;2022-09-29T03:38:51;3.50;99.90
2407;DHT22;37709;53.480;9.688;2022-09-29T03:41:19;3.50;99.90
2407;DHT22;37709;53.480;9.688;2022-09-29T03:43:47;3.50;99.90
2407;DHT22;37709;53.480;9.688;2022-09-29T03:46:14;3.50;99.90
2407;DHT22;37709;53.480;9.688;2022-09-29T03:48:41;3.40;99.90
2407;DHT22;37709;53.480;9.688;2022-09-29T03:51:09;3.50;99.90
2407;DHT22;37709;53.480;9.688;2022-09-29T03:53:36;3.50;99.90
2407;DHT22;37709;53.480;9.688;2022-09-29T03:56:04;3.50;99.90
2407;DHT22;37709;53.480;9.688;2022-09-29T03:58:32;3.60;99.90
2407;DHT22;37709;53.480;9.688;2022-09-29T04:00:59;3.60;99.90
2407;DHT22;37709;53.480;9.688;2022-09-29T04:03:28;3.50;99.90
2407;DHT22;37709;53.480;9.688;2022-09-29T04:05:55;3.50;99.90
2407;DHT22;37709;53.480;9.688;2022-09-29T04:08:22;3.50;99.90
2407;DHT22;37709;53.480;9.688;2022-09-29T04:10:50;3.50;99.90
2407;DHT22;37709;53.480;9.688;2022-09-29T04:13:17;3.60;99.90
2407;DHT22;37709;53.480;9.688;2022-09-29T04:15:47;3.60;99.90
2407;DHT22;37709;53.480;9.688;2022-09-29T04:18:15;3.60;99.90
2407;DHT22;37709;53.480;9.688;2022-09-29T04:20:43;3.70;99.90
2407;DHT22;37709;53.480;9.688;2022-09-29T04:23:10;3.60;99.90
2407;DHT22;37709;53.480;9.688;2022-09-29T04:25:38;3.60;99.90
2407;DHT22;37709;53.480;9.688;2022-09-29T04:28:06;3.50;99.90
2407;DHT22;37709;53.480;9.688;2022-09-29T04:30:33;3.40;99.90
2407;DHT22;37709;53.480;9.688;2022-09-29T04:33:01;3.60;99.90
2407;DHT22;37709;53.480;9.688;2022-09-29T04:35:29;3.70;99.90
2407;DHT22;37709;53.480;9.688;2022-09-29T04:38:02;3.70;99.90
2407;DHT22;37709;53.480;9.688;2022-09-29T04:40:30;3.70;99.90
2407;DHT22;37709;53.480;9.688;2022-09-29T04:42:57;3.80;99.90
2407;DHT22;37709;53.480;9.688;2022-09-29T04:45:25;3.80;99.90
2407;DHT22;37709;53.480;9.688;2022-09-29T04:47:52;3.80;99.90
2407;DHT22;37709;53.480;9.688;2022-09-29T04:50:20;3.80;99.90
2407;DHT22;37709;53.480;9.688;2022-09-29T04:52:47;3.80;99.90
2407;DHT22;37709;53.480;9.688;2022-09-29T04:55:15;3.90;99.90
2407;DHT22;37709;53.480;9.688;2022-09-29T04:57:43;3.90;99.90
2407;DHT22;37709;53.480;9.688;2022-09-29T05:00:11;3.90;99.90
2407;DHT22;37709;53.480;9.688;2022-09-29T05:02:40;3.90;99.90
2407;DHT22;37709;53.480;9.688;2022-09-29T05:05:12;3.90;99.90
2407;DHT22;37709;53.480;9.688;2022-09-29T05:07:40;3.80;99.90
2407;DHT22;37709;53.480;9.688;2022-09-29T05:10:08;3.80;99.90
2407;DHT22;37709;53.480;9.688;2022-09-29T05:12:36;3.80;99.90
2407;DHT22;37709;53.480;9.688;2022-09-29T05:15:04;3.90;99.90
2407;DHT22;37709;53.480;9.688;2022-09-29T05:17:32;3.90;99.90
2407;DHT22;37709;53.480;9.688;2022-09-29T05:20:00;3.90;99.90
2407;DHT22;37709;53.480;9.688;2022-09-29T05:22:27;3.90;99.90
2407;DHT22;37709;53.480;9.688;2022-09-29T05:24:55;3.90;99.90
2407;DHT22;37709;53.480;9.688;2022-09-29T05:27:22;4.00;99.90
2407;DHT22;37709;53.480;9.688;2022-09-29T05:29:49;4.00;99.90
2407;DHT22;37709;53.480;9.688;2022-09-29T05:32:17;4.00;99.90
2407;DHT22;37709;53.480;9.688;2022-09-29T05:34:44;4.00;99.90
2407;DHT22;37709;53.480;9.688;2022-09-29T05:37:12;4.10;99.90
2407;DHT22;37709;53.480;9.688;2022-09-29T05:39:39;4.10;99.90
2407;DHT22;37709;53.480;9.688;2022-09-29T05:42:10;4.20;99.90
2407;DHT22;37709;53.480;9.688;2022-09-29T05:44:37;4.30;99.90
2407;DHT22;37709;53.480;9.688;2022-09-29T05:47:05;4.30;99.90
2407;DHT22;37709;53.480;9.688;2022-09-29T05:49:32;4.40;99.90
2407;DHT22;37709;53.480;9.688;2022-09-29T05:52:24;4.50;99.90
2407;DHT22;37709;53.480;9.688;2022-09-29T05:54:51;4.60;99.90
2407;DHT22;37709;53.480;9.688;2022-09-29T05:57:18;4.60;99.90
2407;DHT22;37709;53.480;9.688;2022-09-29T05:59:46;4.70;99.90
2407;DHT22;37709;53.480;9.688;2022-09-29T06:02:14;4.70;99.90
2407;DHT22;37709;53.480;9.688;2022-09-29T06:04:43;4.80;99.90
2407;DHT22;37709;53.480;9.688;2022-09-29T06:07:11;4.90;99.90
2407;DHT22;37709;53.480;9.688;2022-09-29T06:09:39;4.90;99.90
2407;DHT22;37709;53.480;9.688;2022-09-29T06:12:06;5.00;99.90
2407;DHT22;37709;53.480;9.688;2022-09-29T06:14:34;5.10;99.90
2407;DHT22;37709;53.480;9.688;2022-09-29T06:17:01;5.30;99.90
2407;DHT22;37709;53.480;9.688;2022-09-29T06:19:28;5.30;99.90
2407;DHT22;37709;53.480;9.688;2022-09-29T06:21:56;5.40;99.90
2407;DHT22;37709;53.480;9.688;2022-09-29T06:24:23;5.40;99.90
2407;DHT22;37709;53.480;9.688;2022-09-29T06:26:51;5.50;99.90
2407;DHT22;37709;53.480;9.688;2022-09-29T06:29:18;5.60;99.90
2407;DHT22;37709;53.480;9.688;2022-09-29T06:31:46;5.80;99.90
2407;DHT22;37709;53.480;9.688;2022-09-29T06:34:14;5.90;99.90
2407;DHT22;37709;53.480;9.688;2022-09-29T06:36:43;6.00;99.90
2407;DHT22;37709;53.480;9.688;2022-09-29T06:39:29;6.20;99.90
2407;DHT22;37709;53.480;9.688;2022-09-29T06:41:57;6.50;99.90
2407;DHT22;37709;53.480;9.688;2022-09-29T06:44:26;6.70;99.90
2407;DHT22;37709;53.480;9.688;2022-09-29T06:46:55;6.90;99.90
2407;DHT22;37709;53.480;9.688;2022-09-29T06:49:23;7.10;99.90
2407;DHT22;37709;53.480;9.688;2022-09-29T06:51:51;7.40;99.90
2407;DHT22;37709;53.480;9.688;2022-09-29T06:54:20;7.40;99.90
2407;DHT22;37709;53.480;9.688;2022-09-29T06:56:50;7.40;99.90
2407;DHT22;37709;53.480;9.688;2022-09-29T06:59:18;7.50;99.90
2407;DHT22;37709;53.480;9.688;2022-09-29T07:01:46;7.70;99.90
2407;DHT22;37709;53.480;9.688;2022-09-29T07:04:19;7.80;99.90
2407;DHT22;37709;53.480;9.688;2022-09-29T07:06:47;7.90;99.90
2407;DHT22;37709;53.480;9.688;2022-09-29T07:09:16;8.20;99.90
2407;DHT22;37709;53.480;9.688;2022-09-29T07:11:47;8.50;99.90
2407;DHT22;37709;53.480;9.688;2022-09-29T07:14:16;8.80;99.90
2407;DHT22;37709;53.480;9.688;2022-09-29T07:16:45;9.00;99.90
2407;DHT22;37709;53.480;9.688;2022-09-29T07:19:15;9.40;99.90
2407;DHT22;37709;53.480;9.688;2022-09-29T07:21:45;9.50;99.90
2407;DHT22;37709;53.480;9.688;2022-09-29T07:24:14;9.40;99.90
2407;DHT22;37709;53.480;9.688;2022-09-29T07:26:41;9.40;99.90
2407;DHT22;37709;53.480;9.688;2022-09-29T07:29:09;9.40;99.90
2407;DHT22;37709;53.480;9.688;2022-09-29T07:31:43;9.40;99.90
2407;DHT22;37709;53.480;9.688;2022-09-29T07:34:19;9.50;99.90
2407;DHT22;37709;53.480;9.688;2022-09-29T07:36:47;9.70;99.90
2407;DHT22;37709;53.480;9.688;2022-09-29T07:39:15;9.70;99.90
2407;DHT22;37709;53.480;9.688;2022-09-29T07:41:42;9.70;99.90
2407;DHT22;37709;53.480;9.688;2022-09-29T07:44:10;9.80;99.90
2407;DHT22;37709;53.480;9.688;2022-09-29T07:46:37;9.90;99.90
2407;DHT22;37709;53.480;9.688;2022-09-29T07:49:05;9.80;99.90
2407;DHT22;37709;53.480;9.688;2022-09-29T07:51:32;9.90;99.90
2407;DHT22;37709;53.480;9.688;2022-09-29T07:54:02;10.00;99.90
2407;DHT22;37709;53.480;9.688;2022-09-29T07:56:30;9.90;99.90
2407;DHT22;37709;53.480;9.688;2022-09-29T07:58:57;9.80;99.90
2407;DHT22;37709;53.480;9.688;2022-09-29T08:01:25;9.90;99.90
2407;DHT22;37709;53.480;9.688;2022-09-29T08:03:54;10.00;99.90
2407;DHT22;37709;53.480;9.688;2022-09-29T08:06:23;10.00;99.90
2407;DHT22;37709;53.480;9.688;2022-09-29T08:08:51;10.00;99.90
2407;DHT22;37709;53.480;9.688;2022-09-29T08:11:32;10.10;99.90
2407;DHT22;37709;53.480;9.688;2022-09-29T08:14:03;10.10;99.90
2407;DHT22;37709;53.480;9.688;2022-09-29T08:16:30;10.00;99.90
2407;DHT22;37709;53.480;9.688;2022-09-29T08:19:00;10.00;99.90
2407;DHT22;37709;53.480;9.688;2022-09-29T08:21:28;10.10;99.90
2407;DHT22;37709;53.480;9.688;2022-09-29T08:23:56;10.30;99.90
2407;DHT22;37709;53.480;9.688;2022-09-29T08:26:24;10.50;99.90
2407;DHT22;37709;53.480;9.688;2022-09-29T08:29:07;10.70;99.90
2407;DHT22;37709;53.480;9.688;2022-09-29T08:31:36;10.90;99.90
2407;DHT22;37709;53.480;9.688;2022-09-29T08:34:06;11.20;99.90
2407;DHT22;37709;53.480;9.688;2022-09-29T08:36:34;11.40;99.90
2407;DHT22;37709;53.480;9.688;2022-09-29T08:39:03;11.50;99.90
2407;DHT22;37709;53.480;9.688;2022-09-29T08:42:17;11.80;99.90
2407;DHT22;37709;53.480;9.688;2022-09-29T08:44:52;12.50;99.90
2407;DHT22;37709;53.480;9.688;2022-09-29T08:47:44;12.90;99.90
2407;DHT22;37709;53.480;9.688;2022-09-29T08:50:21;13.20;99.90
2407;DHT22;37709;53.480;9.688;2022-09-29T08:52:59;12.70;99.90
2407;DHT22;37709;53.480;9.688;2022-09-29T08:55:40;12.50;99.90
2407;DHT22;37709;53.480;9.688;2022-09-29T08:58:13;13.10;99.90
2407;DHT22;37709;53.480;9.688;2022-09-29T09:06:36;14.30;99.90
2407;DHT22;37709;53.480;9.688;2022-09-29T09:17:37;14.30;99.90
2407;DHT22;37709;53.480;9.688;2022-09-29T09:22:55;16.10;99.90
2407;DHT22;37709;53.480;9.688;2022-09-29T09:25:31;16.10;99.90
2407;DHT22;37709;53.480;9.688;2022-09-29T09:31:06;15.30;99.90
2407;DHT22;37709;53.480;9.688;2022-09-29T09:33:52;14.90;99.90
2407;DHT22;37709;53.480;9.688;2022-09-29T09:36:39;15.20;99.90
2407;DHT22;37709;53.480;9.688;2022-09-29T09:39:15;16.20;99.90
2407;DHT22;37709;53.480;9.688;2022-09-29T09:41:46;16.70;99.90
2407;DHT22;37709;53.480;9.688;2022-09-29T09:44:25;16.80;99.90
2407;DHT22;37709;53.480;9.688;2022-09-29T09:47:00;16.60;99.90
2407;DHT22;37709;53.480;9.688;2022-09-29T09:49:33;16.50;99.90
2407;DHT22;37709;53.480;9.688;2022-09-29T09:52:10;17.00;99.90
2407;DHT22;37709;53.480;9.688;2022-09-29T09:54:50;17.50;99.90
2407;DHT22;37709;53.480;9.688;2022-09-29T09:57:38;17.50;99.90
2407;DHT22;37709;53.480;9.688;2022-09-29T10:00:22;18.50;99.90
2407;DHT22;37709;53.480;9.688;2022-09-29T10:02:53;19.50;99.90
2407;DHT22;37709;53.480;9.688;2022-09-29T10:05:30;21.00;99.90
2407;DHT22;37709;53.480;9.688;2022-09-29T10:08:00;21.30;99.90
2407;DHT22;37709;53.480;9.688;2022-09-29T10:10:29;20.40;98.50
2407;DHT22;37709;53.480;9.688;2022-09-29T10:15:51;19.40;99.80
2407;DHT22;37709;53.480;9.688;2022-09-29T10:21:02;18.00;99.60
2407;DHT22;37709;53.480;9.688;2022-09-29T10:23:34;17.30;99.90
2407;DHT22;37709;53.480;9.688;2022-09-29T10:26:16;16.90;99.90
2407;DHT22;37709;53.480;9.688;2022-09-29T10:28:47;16.40;99.90
2407;DHT22;37709;53.480;9.688;2022-09-29T10:31:28;16.30;99.90
2407;DHT22;37709;53.480;9.688;2022-09-29T10:36:55;16.90;99.90
2407;DHT22;37709;53.480;9.688;2022-09-29T10:39:38;16.70;99.90
2407;DHT22;37709;53.480;9.688;2022-09-29T10:47:35;15.80;99.90
2407;DHT22;37709;53.480;9.688;2022-09-29T10:50:19;15.90;99.90
2407;DHT22;37709;53.480;9.688;2022-09-29T10:52:55;15.50;99.90
2407;DHT22;37709;53.480;9.688;2022-09-29T10:55:25;15.30;99.90
2407;DHT22;37709;53.480;9.688;2022-09-29T10:57:58;15.00;99.90
2407;DHT22;37709;53.480;9.688;2022-09-29T11:00:38;14.90;99.90
2407;DHT22;37709;53.480;9.688;2022-09-29T11:03:18;14.70;99.90
2407;DHT22;37709;53.480;9.688;2022-09-29T11:05:57;14.70;99.90
2407;DHT22;37709;53.480;9.688;2022-09-29T11:08:25;14.70;99.90
2407;DHT22;37709;53.480;9.688;2022-09-29T11:11:16;14.70;99.90
2407;DHT22;37709;53.480;9.688;2022-09-29T11:13:46;14.70;99.90
2407;DHT22;37709;53.480;9.688;2022-09-29T11:16:17;14.60;99.90
2407;DHT22;37709;53.480;9.688;2022-09-29T11:18:50;14.70;99.90
2407;DHT22;37709;53.480;9.688;2022-09-29T11:29:36;14.80;99.90
2407;DHT22;37709;53.480;9.688;2022-09-29T11:38:30;15.10;99.90
2407;DHT22;37709;53.480;9.688;2022-09-29T11:45:08;15.00;99.90
2407;DHT22;37709;53.480;9.688;2022-09-29T11:55:47;15.80;99.90
2407;DHT22;37709;53.480;9.688;2022-09-29T12:03:45;15.40;99.90
2407;DHT22;37709;53.480;9.688;2022-09-29T12:12:07;14.70;99.90
2407;DHT22;37709;53.480;9.688;2022-09-29T12:17:41;14.60;99.90
2407;DHT22;37709;53.480;9.688;2022-09-29T12:20:36;14.60;99.90
2407;DHT22;37709;53.480;9.688;2022-09-29T12:23:10;14.90;99.90
2407;DHT22;37709;53.480;9.688;2022-09-29T12:28:55;15.30;99.90
2407;DHT22;37709;53.480;9.688;2022-09-29T12:31:30;15.30;99.90
2407;DHT22;37709;53.480;9.688;2022-09-29T12:34:04;15.30;99.90
2407;DHT22;37709;53.480;9.688;2022-09-29T12:36:56;15.30;99.90
2407;DHT22;37709;53.480;9.688;2022-09-29T12:45:59;15.10;99.90
2407;DHT22;37709;53.480;9.688;2022-09-29T12:48:35;15.00;99.90
2407;DHT22;37709;53.480;9.688;2022-09-29T12:51:32;14.80;99.90
2407;DHT22;37709;53.480;9.688;2022-09-29T12:59:39;15.40;99.90
2407;DHT22;37709;53.480;9.688;2022-09-29T13:02:28;15.60;99.90
2407;DHT22;37709;53.480;9.688;2022-09-29T13:05:19;15.60;99.90
2407;DHT22;37709;53.480;9.688;2022-09-29T13:08:34;15.80;99.90
2407;DHT22;37709;53.480;9.688;2022-09-29T13:14:40;15.80;99.90
2407;DHT22;37709;53.480;9.688;2022-09-29T13:17:22;15.60;99.90
2407;DHT22;37709;53.480;9.688;2022-09-29T13:20:36;15.50;99.90
2407;DHT22;37709;53.480;9.688;2022-09-29T13:28:45;14.20;99.90
2407;DHT22;37709;53.480;9.688;2022-09-29T13:31:16;13.90;99.90
2407;DHT22;37709;53.480;9.688;2022-09-29T13:33:51;13.60;99.90
2407;DHT22;37709;53.480;9.688;2022-09-29T13:36:38;13.30;99.90
2407;DHT22;37709;53.480;9.688;2022-09-29T13:39:21;13.30;99.90
2407;DHT22;37709;53.480;9.688;2022-09-29T13:41:52;13.10;99.90
2407;DHT22;37709;53.480;9.688;2022-09-29T13:44:26;12.90;99.90
2407;DHT22;37709;53.480;9.688;2022-09-29T13:46:55;12.70;99.90
2407;DHT22;37709;53.480;9.688;2022-09-29T13:49:25;12.70;99.90
2407;DHT22;37709;53.480;9.688;2022-09-29T13:51:55;12.60;99.90
2407;DHT22;37709;53.480;9.688;2022-09-29T13:54:29;12.60;99.90
2407;DHT22;37709;53.480;9.688;2022-09-29T13:59:31;12.50;99.90
2407;DHT22;37709;53.480;9.688;2022-09-29T14:01:59;12.50;99.90
2407;DHT22;37709;53.480;9.688;2022-09-29T14:15:34;12.30;99.90
2407;DHT22;37709;53.480;9.688;2022-09-29T14:18:10;12.30;99.90
2407;DHT22;37709;53.480;9.688;2022-09-29T14:21:03;12.30;99.90
2407;DHT22;37709;53.480;9.688;2022-09-29T14:26:47;12.30;99.90
2407;DHT22;37709;53.480;9.688;2022-09-29T14:29:28;12.30;99.90
2407;DHT22;37709;53.480;9.688;2022-09-29T14:31:58;12.20;99.90
2407;DHT22;37709;53.480;9.688;2022-09-29T14:34:29;12.20;99.90
2407;DHT22;37709;53.480;9.688;2022-09-29T14:37:01;12.20;99.90
2407;DHT22;37709;53.480;9.688;2022-09-29T14:39:30;12.20;99.90
2407;DHT22;37709;53.480;9.688;2022-09-29T14:41:58;12.30;99.90
2407;DHT22;37709;53.480;9.688;2022-09-29T14:44:27;12.20;99.90
2407;DHT22;37709;53.480;9.688;2022-09-29T14:47:31;12.10;99.90
2407;DHT22;37709;53.480;9.688;2022-09-29T14:50:30;12.10;99.90
2407;DHT22;37709;53.480;9.688;2022-09-29T14:56:21;12.10;99.90
2407;DHT22;37709;53.480;9.688;2022-09-29T15:01:28;12.10;99.90
2407;DHT22;37709;53.480;9.688;2022-09-29T15:04:03;12.10;99.90
2407;DHT22;37709;53.480;9.688;2022-09-29T15:06:31;12.20;99.90
2407;DHT22;37709;53.480;9.688;2022-09-29T15:09:02;12.10;99.90
2407;DHT22;37709;53.480;9.688;2022-09-29T15:11:33;12.00;99.90
2407;DHT22;37709;53.480;9.688;2022-09-29T15:19:41;12.20;99.90
2407;DHT22;37709;53.480;9.688;2022-09-29T15:27:23;12.00;99.90
2407;DHT22;37709;53.480;9.688;2022-09-29T15:29:55;12.00;99.90
2407;DHT22;37709;53.480;9.688;2022-09-29T15:32:29;11.90;99.90
2407;DHT22;37709;53.480;9.688;2022-09-29T15:35:04;11.90;99.90
2407;DHT22;37709;53.480;9.688;2022-09-29T15:40:52;11.80;99.90
2407;DHT22;37709;53.480;9.688;2022-09-29T15:43:22;11.80;99.90
2407;DHT22;37709;53.480;9.688;2022-09-29T15:46:01;11.70;99.90
2407;DHT22;37709;53.480;9.688;2022-09-29T15:48:39;11.70;99.90
2407;DHT22;37709;53.480;9.688;2022-09-29T15:51:16;11.70;99.90
2407;DHT22;37709;53.480;9.688;2022-09-29T15:53:44;11.70;99.90
2407;DHT22;37709;53.480;9.688;2022-09-29T15:56:13;11.60;99.90
2407;DHT22;37709;53.480;9.688;2022-09-29T15:58:43;11.60;99.90
2407;DHT22;37709;53.480;9.688;2022-09-29T16:01:13;11.60;99.90
2407;DHT22;37709;53.480;9.688;2022-09-29T16:03:56;11.60;99.90
2407;DHT22;37709;53.480;9.688;2022-09-29T16:06:30;11.60;99.90
2407;DHT22;37709;53.480;9.688;2022-09-29T16:09:00;11.60;99.90
2407;DHT22;37709;53.480;9.688;2022-09-29T16:11:32;11.60;99.90
2407;DHT22;37709;53.480;9.688;2022-09-29T16:14:12;11.50;99.90
2407;DHT22;37709;53.480;9.688;2022-09-29T16:16:45;11.50;99.90
2407;DHT22;37709;53.480;9.688;2022-09-29T16:19:24;11.50;99.90
2407;DHT22;37709;53.480;9.688;2022-09-29T16:22:02;11.40;99.90
2407;DHT22;37709;53.480;9.688;2022-09-29T16:24:49;11.40;99.90
2407;DHT22;37709;53.480;9.688;2022-09-29T16:27:44;11.40;99.90
2407;DHT22;37709;53.480;9.688;2022-09-29T16:30:19;11.40;99.90
2407;DHT22;37709;53.480;9.688;2022-09-29T16:32:52;11.30;99.90
2407;DHT22;37709;53.480;9.688;2022-09-29T16:36:05;11.30;99.90
2407;DHT22;37709;53.480;9.688;2022-09-29T16:38:34;11.30;99.90
2407;DHT22;37709;53.480;9.688;2022-09-29T16:41:28;11.20;99.90
2407;DHT22;37709;53.480;9.688;2022-09-29T16:49:18;11.10;99.90
2407;DHT22;37709;53.480;9.688;2022-09-29T16:51:47;11.00;99.90
2407;DHT22;37709;53.480;9.688;2022-09-29T16:54:19;10.90;99.90
2407;DHT22;37709;53.480;9.688;2022-09-29T16:56:48;10.90;99.90
2407;DHT22;37709;53.480;9.688;2022-09-29T16:59:17;10.80;99.90
2407;DHT22;37709;53.480;9.688;2022-09-29T17:01:45;10.80;99.90
2407;DHT22;37709;53.480;9.688;2022-09-29T17:04:13;10.70;99.90
2407;DHT22;37709;53.480;9.688;2022-09-29T17:06:45;10.70;99.90
2407;DHT22;37709;53.480;9.688;2022-09-29T17:09:17;10.70;99.90
2407;DHT22;37709;53.480;9.688;2022-09-29T17:11:46;10.60;99.90
2407;DHT22;37709;53.480;9.688;2022-09-29T17:14:15;10.60;99.90
2407;DHT22;37709;53.480;9.688;2022-09-29T17:16:44;10.50;99.90
2407;DHT22;37709;53.480;9.688;2022-09-29T17:19:12;10.50;99.90
2407;DHT22;37709;53.480;9.688;2022-09-29T17:21:39;10.50;99.90
2407;DHT22;37709;53.480;9.688;2022-09-29T17:24:06;10.50;99.90
2407;DHT22;37709;53.480;9.688;2022-09-29T17:26:38;10.40;99.90
2407;DHT22;37709;53.480;9.688;2022-09-29T17:29:25;10.40;99.90
2407;DHT22;37709;53.480;9.688;2022-09-29T17:31:52;10.40;99.90
2407;DHT22;37709;53.480;9.688;2022-09-29T17:34:19;10.30;99.90
2407;DHT22;37709;53.480;9.688;2022-09-29T17:36:58;10.30;99.90
2407;DHT22;37709;53.480;9.688;2022-09-29T17:39:28;10.30;99.90
2407;DHT22;37709;53.480;9.688;2022-09-29T17:41:56;10.30;99.90
2407;DHT22;37709;53.480;9.688;2022-09-29T17:44:24;10.30;99.90
2407;DHT22;37709;53.480;9.688;2022-09-29T17:46:53;10.20;99.90
2407;DHT22;37709;53.480;9.688;2022-09-29T17:49:44;10.20;99.90
2407;DHT22;37709;53.480;9.688;2022-09-29T17:52:16;10.20;99.90
2407;DHT22;37709;53.480;9.688;2022-09-29T17:54:46;10.10;99.90
2407;DHT22;37709;53.480;9.688;2022-09-29T17:57:24;10.10;99.90
2407;DHT22;37709;53.480;9.688;2022-09-29T17:59:53;10.10;99.90
2407;DHT22;37709;53.480;9.688;2022-09-29T18:02:21;10.10;99.90
2407;DHT22;37709;53.480;9.688;2022-09-29T18:04:50;10.10;99.90
2407;DHT22;37709;53.480;9.688;2022-09-29T18:07:20;10.10;99.90
2407;DHT22;37709;53.480;9.688;2022-09-29T18:09:47;10.10;99.90
2407;DHT22;37709;53.480;9.688;2022-09-29T18:12:15;10.10;99.90
2407;DHT22;37709;53.480;9.688;2022-09-29T18:14:42;10.10;99.90
2407;DHT22;37709;53.480;9.688;2022-09-29T18:17:10;10.10;99.90
2407;DHT22;37709;53.480;9.688;2022-09-29T18:19:37;10.00;99.90
2407;DHT22;37709;53.480;9.688;2022-09-29T18:22:06;10.00;99.90
2407;DHT22;37709;53.480;9.688;2022-09-29T18:24:34;10.00;99.90
2407;DHT22;37709;53.480;9.688;2022-09-29T18:27:01;9.90;99.90
2407;DHT22;37709;53.480;9.688;2022-09-29T18:29:29;9.90;99.90
2407;DHT22;37709;53.480;9.688;2022-09-29T18:31:58;9.90;99.90
2407;DHT22;37709;53.480;9.688;2022-09-29T18:34:27;9.90;99.90
2407;DHT22;37709;53.480;9.688;2022-09-29T18:36:57;9.90;99.90
2407;DHT22;37709;53.480;9.688;2022-09-29T18:39:24;9.90;99.90
2407;DHT22;37709;53.480;9.688;2022-09-29T18:41:53;9.80;99.90
2407;DHT22;37709;53.480;9.688;2022-09-29T18:44:21;9.80;99.90
2407;DHT22;37709;53.480;9.688;2022-09-29T18:46:49;9.80;99.90
2407;DHT22;37709;53.480;9.688;2022-09-29T18:49:16;9.80;99.90
2407;DHT22;37709;53.480;9.688;2022-09-29T18:51:44;9.80;99.90
2407;DHT22;37709;53.480;9.688;2022-09-29T18:54:12;9.70;99.90
2407;DHT22;37709;53.480;9.688;2022-09-29T18:56:40;9.70;99.90
2407;DHT22;37709;53.480;9.688;2022-09-29T18:59:10;9.70;99.90
2407;DHT22;37709;53.480;9.688;2022-09-29T19:01:39;9.70;99.90
2407;DHT22;37709;53.480;9.688;2022-09-29T19:04:08;9.70;99.90
2407;DHT22;37709;53.480;9.688;2022-09-29T19:06:36;9.70;99.90
2407;DHT22;37709;53.480;9.688;2022-09-29T19:09:05;9.60;99.90
2407;DHT22;37709;53.480;9.688;2022-09-29T19:11:32;9.60;99.90
2407;DHT22;37709;53.480;9.688;2022-09-29T19:14:01;9.60;99.90
2407;DHT22;37709;53.480;9.688;2022-09-29T19:16:29;9.50;99.90
2407;DHT22;37709;53.480;9.688;2022-09-29T19:19:00;9.50;99.90
2407;DHT22;37709;53.480;9.688;2022-09-29T19:21:30;9.50;99.90
2407;DHT22;37709;53.480;9.688;2022-09-29T19:24:00;9.50;99.90